sensor_id;sensor_type;location;lat;lon;timestamp;temperature;humidity
78704;SHT31;68034;51.966;5.676;2023-06-14T00:00:06;22.9;34.8
78704;SHT31;68034;51.966;5.676;2023-06-14T00:02:35;22.9;35.2
78704;SHT31;68034;51.966;5.676;2023-06-14T00:05:04;22.8;35.3
78704;SHT31;68034;51.966;5.676;2023-06-14T00:07:37;22.8;35.3
78704;SHT31;68034;51.966;5.676;2023-06-14T00:10:09;22.7;35.5
78704;SHT31;68034;51.966;5.676;2023-06-14T00:12:38;22.6;36.2
78704;SHT31;68034;51.966;5.676;2023-06-14T00:15:08;22.6;36.2
78704;SHT31;68034;51.966;5.676;2023-06-14T00:17:37;22.5;35.9
78704;SHT31;68034;51.966;5.676;2023-06-14T00:20:07;22.5;36.2
78704;SHT31;68034;51.966;5.676;2023-06-14T00:22:36;22.4;35.5
78704;SHT31;68034;51.966;5.676;2023-06-14T00:25:05;22.4;36.0
78704;SHT31;68034;51.966;5.676;2023-06-14T00:27:34;22.4;35.7
78704;SHT31;68034;51.966;5.676;2023-06-14T00:30:03;22.3;36.6
78704;SHT31;68034;51.966;5.676;2023-06-14T00:32:32;22.3;36.6
78704;SHT31;68034;51.966;5.676;2023-06-14T00:35:00;22.2;36.0
78704;SHT31;68034;51.966;5.676;2023-06-14T00:37:29;22.2;36.3
78704;SHT31;68034;51.966;5.676;2023-06-14T00:39:57;22.2;36.6
78704;SHT31;68034;51.966;5.676;2023-06-14T00:42:27;22.1;36.3
78704;SHT31;68034;51.966;5.676;2023-06-14T00:45:04;22.1;37.0
78704;SHT31;68034;51.966;5.676;2023-06-14T00:47:37;22.1;37.5
78704;SHT31;68034;51.966;5.676;2023-06-14T00:50:09;22.2;37.5
78704;SHT31;68034;51.966;5.676;2023-06-14T00:52:38;22.3;37.5
78704;SHT31;68034;51.966;5.676;2023-06-14T00:55:08;22.3;37.0
78704;SHT31;68034;51.966;5.676;2023-06-14T00:57:37;22.3;37.2
78704;SHT31;68034;51.966;5.676;2023-06-14T01:00:07;22.2;36.8
78704;SHT31;68034;51.966;5.676;2023-06-14T01:02:39;22.2;37.2
78704;SHT31;68034;51.966;5.676;2023-06-14T01:05:09;22.2;36.4
78704;SHT31;68034;51.966;5.676;2023-06-14T01:07:46;22.1;36.2
78704;SHT31;68034;51.966;5.676;2023-06-14T01:10:32;22.1;36.7
78704;SHT31;68034;51.966;5.676;2023-06-14T01:13:08;22.1;37.1
78704;SHT31;68034;51.966;5.676;2023-06-14T01:15:41;22.0;36.6
78704;SHT31;68034;51.966;5.676;2023-06-14T01:18:11;22.0;37.1
78704;SHT31;68034;51.966;5.676;2023-06-14T01:20:44;21.9;37.0
78704;SHT31;68034;51.966;5.676;2023-06-14T01:23:15;21.9;36.8
78704;SHT31;68034;51.966;5.676;2023-06-14T01:25:44;21.9;37.0
78704;SHT31;68034;51.966;5.676;2023-06-14T01:28:15;21.8;36.8
78704;SHT31;68034;51.966;5.676;2023-06-14T01:30:47;21.8;37.2
78704;SHT31;68034;51.966;5.676;2023-06-14T01:33:20;21.7;37.5
78704;SHT31;68034;51.966;5.676;2023-06-14T01:35:51;21.7;37.5
78704;SHT31;68034;51.966;5.676;2023-06-14T01:38:22;21.6;38.0
78704;SHT31;68034;51.966;5.676;2023-06-14T01:40:53;21.6;37.7
78704;SHT31;68034;51.966;5.676;2023-06-14T01:43:23;21.5;37.9
78704;SHT31;68034;51.966;5.676;2023-06-14T01:45:56;21.5;37.8
78704;SHT31;68034;51.966;5.676;2023-06-14T01:48:27;21.4;38.5
78704;SHT31;68034;51.966;5.676;2023-06-14T01:50:55;21.4;38.4
78704;SHT31;68034;51.966;5.676;2023-06-14T01:53:24;21.4;38.3
78704;SHT31;68034;51.966;5.676;2023-06-14T01:55:53;21.3;38.1
78704;SHT31;68034;51.966;5.676;2023-06-14T01:58:21;21.3;38.2
78704;SHT31;68034;51.966;5.676;2023-06-14T02:00:50;21.2;38.6
78704;SHT31;68034;51.966;5.676;2023-06-14T02:03:21;21.2;38.4
78704;SHT31;68034;51.966;5.676;2023-06-14T02:05:50;21.2;38.8
78704;SHT31;68034;51.966;5.676;2023-06-14T02:08:19;21.1;38.7
78704;SHT31;68034;51.966;5.676;2023-06-14T02:10:49;21.1;38.8
78704;SHT31;68034;51.966;5.676;2023-06-14T02:13:18;21.0;38.9
78704;SHT31;68034;51.966;5.676;2023-06-14T02:15:47;21.0;38.7
78704;SHT31;68034;51.966;5.676;2023-06-14T02:18:19;21.0;39.0
78704;SHT31;68034;51.966;5.676;2023-06-14T02:20:48;20.9;39.1
78704;SHT31;68034;51.966;5.676;2023-06-14T02:23:17;20.9;39.2
78704;SHT31;68034;51.966;5.676;2023-06-14T02:25:46;20.9;39.3
78704;SHT31;68034;51.966;5.676;2023-06-14T02:28:16;20.8;39.3
78704;SHT31;68034;51.966;5.676;2023-06-14T02:30:45;20.8;39.1
78704;SHT31;68034;51.966;5.676;2023-06-14T02:33:13;20.8;39.4
78704;SHT31;68034;51.966;5.676;2023-06-14T02:35:44;20.8;39.3
78704;SHT31;68034;51.966;5.676;2023-06-14T02:38:12;20.7;39.6
78704;SHT31;68034;51.966;5.676;2023-06-14T02:40:41;20.7;39.6
78704;SHT31;68034;51.966;5.676;2023-06-14T02:43:10;20.7;40.0
78704;SHT31;68034;51.966;5.676;2023-06-14T02:45:39;20.6;40.0
78704;SHT31;68034;51.966;5.676;2023-06-14T02:48:11;20.7;39.6
78704;SHT31;68034;51.966;5.676;2023-06-14T02:50:39;20.8;39.6
78704;SHT31;68034;51.966;5.676;2023-06-14T02:53:08;20.9;39.5
78704;SHT31;68034;51.966;5.676;2023-06-14T02:55:37;20.9;38.9
78704;SHT31;68034;51.966;5.676;2023-06-14T02:58:06;20.9;39.0
78704;SHT31;68034;51.966;5.676;2023-06-14T03:00:35;20.9;38.8
78704;SHT31;68034;51.966;5.676;2023-06-14T03:03:04;20.9;38.9
78704;SHT31;68034;51.966;5.676;2023-06-14T03:05:38;20.8;39.0
78704;SHT31;68034;51.966;5.676;2023-06-14T03:08:07;20.8;39.0
78704;SHT31;68034;51.966;5.676;2023-06-14T03:10:36;20.7;39.3
78704;SHT31;68034;51.966;5.676;2023-06-14T03:13:05;20.7;39.5
78704;SHT31;68034;51.966;5.676;2023-06-14T03:15:34;20.6;39.8
78704;SHT31;68034;51.966;5.676;2023-06-14T03:18:02;20.6;40.0
78704;SHT31;68034;51.966;5.676;2023-06-14T03:20:34;20.6;40.3
78704;SHT31;68034;51.966;5.676;2023-06-14T03:23:02;20.5;40.1
78704;SHT31;68034;51.966;5.676;2023-06-14T03:25:32;20.5;40.0
78704;SHT31;68034;51.966;5.676;2023-06-14T03:28:05;20.4;40.2
78704;SHT31;68034;51.966;5.676;2023-06-14T03:30:33;20.4;40.5
78704;SHT31;68034;51.966;5.676;2023-06-14T03:33:02;20.3;40.7
78704;SHT31;68034;51.966;5.676;2023-06-14T03:35:31;20.2;40.9
78704;SHT31;68034;51.966;5.676;2023-06-14T03:38:01;20.2;40.7
78704;SHT31;68034;51.966;5.676;2023-06-14T03:40:31;20.1;41.0
78704;SHT31;68034;51.966;5.676;2023-06-14T03:42:59;20.1;41.0
78704;SHT31;68034;51.966;5.676;2023-06-14T03:45:28;20.1;41.0
78704;SHT31;68034;51.966;5.676;2023-06-14T03:47:57;20.0;41.5
78704;SHT31;68034;51.966;5.676;2023-06-14T03:50:27;20.0;41.5
78704;SHT31;68034;51.966;5.676;2023-06-14T03:52:55;19.9;41.2
78704;SHT31;68034;51.966;5.676;2023-06-14T03:55:24;19.9;41.7
78704;SHT31;68034;51.966;5.676;2023-06-14T03:57:54;19.9;41.8
78704;SHT31;68034;51.966;5.676;2023-06-14T04:00:23;19.8;41.8
78704;SHT31;68034;51.966;5.676;2023-06-14T04:02:53;19.8;42.1
78704;SHT31;68034;51.966;5.676;2023-06-14T04:05:22;19.8;42.0
78704;SHT31;68034;51.966;5.676;2023-06-14T04:07:53;19.7;42.4
78704;SHT31;68034;51.966;5.676;2023-06-14T04:10:22;19.7;42.0
78704;SHT31;68034;51.966;5.676;2023-06-14T04:12:51;19.7;42.5
78704;SHT31;68034;51.966;5.676;2023-06-14T04:15:19;19.7;42.4
78704;SHT31;68034;51.966;5.676;2023-06-14T04:17:48;19.6;42.8
78704;SHT31;68034;51.966;5.676;2023-06-14T04:20:17;19.6;42.8
78704;SHT31;68034;51.966;5.676;2023-06-14T04:22:46;19.6;42.9
78704;SHT31;68034;51.966;5.676;2023-06-14T04:25:15;19.6;42.9
78704;SHT31;68034;51.966;5.676;2023-06-14T04:27:46;19.6;42.8
78704;SHT31;68034;51.966;5.676;2023-06-14T04:30:14;19.5;42.8
78704;SHT31;68034;51.966;5.676;2023-06-14T04:32:43;19.5;42.9
78704;SHT31;68034;51.966;5.676;2023-06-14T04:35:12;19.5;43.1
78704;SHT31;68034;51.966;5.676;2023-06-14T04:37:41;19.5;43.2
78704;SHT31;68034;51.966;5.676;2023-06-14T04:40:10;19.5;43.5
78704;SHT31;68034;51.966;5.676;2023-06-14T04:42:39;19.5;43.5
78704;SHT31;68034;51.966;5.676;2023-06-14T04:45:11;19.5;43.7
78704;SHT31;68034;51.966;5.676;2023-06-14T04:47:42;19.5;43.6
78704;SHT31;68034;51.966;5.676;2023-06-14T04:50:25;19.6;43.5
78704;SHT31;68034;51.966;5.676;2023-06-14T04:52:54;19.7;43.4
78704;SHT31;68034;51.966;5.676;2023-06-14T04:55:23;19.8;42.9
78704;SHT31;68034;51.966;5.676;2023-06-14T04:57:52;19.8;43.2
78704;SHT31;68034;51.966;5.676;2023-06-14T05:00:21;19.8;43.1
78704;SHT31;68034;51.966;5.676;2023-06-14T05:02:50;19.8;43.1
78704;SHT31;68034;51.966;5.676;2023-06-14T05:05:19;19.8;43.2
78704;SHT31;68034;51.966;5.676;2023-06-14T05:07:48;19.8;43.6
78704;SHT31;68034;51.966;5.676;2023-06-14T05:10:17;19.8;43.5
78704;SHT31;68034;51.966;5.676;2023-06-14T05:12:45;19.8;43.7
78704;SHT31;68034;51.966;5.676;2023-06-14T05:15:15;19.8;43.8
78704;SHT31;68034;51.966;5.676;2023-06-14T05:17:45;19.8;44.1
78704;SHT31;68034;51.966;5.676;2023-06-14T05:20:16;19.8;43.8
78704;SHT31;68034;51.966;5.676;2023-06-14T05:22:45;19.9;43.9
78704;SHT31;68034;51.966;5.676;2023-06-14T05:25:15;19.9;44.1
78704;SHT31;68034;51.966;5.676;2023-06-14T05:27:43;20.0;43.9
78704;SHT31;68034;51.966;5.676;2023-06-14T05:30:13;20.0;43.6
78704;SHT31;68034;51.966;5.676;2023-06-14T05:32:42;20.0;43.7
78704;SHT31;68034;51.966;5.676;2023-06-14T05:35:11;20.0;44.2
78704;SHT31;68034;51.966;5.676;2023-06-14T05:37:42;20.0;44.2
78704;SHT31;68034;51.966;5.676;2023-06-14T05:40:11;20.0;44.1
78704;SHT31;68034;51.966;5.676;2023-06-14T05:42:40;20.0;43.7
78704;SHT31;68034;51.966;5.676;2023-06-14T05:45:09;20.0;43.8
78704;SHT31;68034;51.966;5.676;2023-06-14T05:47:38;19.9;44.0
78704;SHT31;68034;51.966;5.676;2023-06-14T05:50:07;19.9;43.9
78704;SHT31;68034;51.966;5.676;2023-06-14T05:52:36;19.9;43.6
78704;SHT31;68034;51.966;5.676;2023-06-14T05:55:05;19.9;43.4
78704;SHT31;68034;51.966;5.676;2023-06-14T05:57:34;19.9;43.1
78704;SHT31;68034;51.966;5.676;2023-06-14T06:00:05;20.0;42.9
78704;SHT31;68034;51.966;5.676;2023-06-14T06:14:42;20.9;41.3
78704;SHT31;68034;51.966;5.676;2023-06-14T06:17:11;20.9;41.2
78704;SHT31;68034;51.966;5.676;2023-06-14T06:19:39;20.9;41.5
78704;SHT31;68034;51.966;5.676;2023-06-14T06:22:09;20.9;41.5
78704;SHT31;68034;51.966;5.676;2023-06-14T06:24:38;20.9;41.8
78704;SHT31;68034;51.966;5.676;2023-06-14T06:27:07;20.9;42.0
78704;SHT31;68034;51.966;5.676;2023-06-14T06:29:36;20.9;41.9
78704;SHT31;68034;51.966;5.676;2023-06-14T06:32:06;20.9;42.0
78704;SHT31;68034;51.966;5.676;2023-06-14T06:34:34;20.9;42.2
78704;SHT31;68034;51.966;5.676;2023-06-14T06:37:04;20.9;42.7
78704;SHT31;68034;51.966;5.676;2023-06-14T06:39:34;21.0;42.0
78704;SHT31;68034;51.966;5.676;2023-06-14T06:42:02;21.0;42.0
78704;SHT31;68034;51.966;5.676;2023-06-14T06:44:31;21.0;42.5
78704;SHT31;68034;51.966;5.676;2023-06-14T06:47:00;21.0;42.5
78704;SHT31;68034;51.966;5.676;2023-06-14T06:49:28;21.0;42.8
78704;SHT31;68034;51.966;5.676;2023-06-14T06:52:05;21.2;42.6
78704;SHT31;68034;51.966;5.676;2023-06-14T06:54:35;21.4;42.1
78704;SHT31;68034;51.966;5.676;2023-06-14T06:57:04;21.5;42.6
78704;SHT31;68034;51.966;5.676;2023-06-14T06:59:34;21.6;42.6
78704;SHT31;68034;51.966;5.676;2023-06-14T07:02:03;21.7;41.4
78704;SHT31;68034;51.966;5.676;2023-06-14T07:04:32;21.8;41.4
78704;SHT31;68034;51.966;5.676;2023-06-14T07:07:01;21.8;41.7
78704;SHT31;68034;51.966;5.676;2023-06-14T07:09:29;21.9;42.0
78704;SHT31;68034;51.966;5.676;2023-06-14T07:11:58;21.9;41.3
78704;SHT31;68034;51.966;5.676;2023-06-14T07:14:27;22.0;41.5
78704;SHT31;68034;51.966;5.676;2023-06-14T07:16:56;22.1;40.9
78704;SHT31;68034;51.966;5.676;2023-06-14T07:19:25;22.1;40.7
78704;SHT31;68034;51.966;5.676;2023-06-14T07:21:54;22.2;40.7
78704;SHT31;68034;51.966;5.676;2023-06-14T07:24:24;22.2;41.4
78704;SHT31;68034;51.966;5.676;2023-06-14T07:26:54;22.3;40.0
78704;SHT31;68034;51.966;5.676;2023-06-14T07:29:23;22.4;40.9
78704;SHT31;68034;51.966;5.676;2023-06-14T07:31:53;22.4;41.4
78704;SHT31;68034;51.966;5.676;2023-06-14T07:34:22;22.5;41.7
78704;SHT31;68034;51.966;5.676;2023-06-14T07:36:51;22.6;40.2
78704;SHT31;68034;51.966;5.676;2023-06-14T07:39:20;22.7;39.6
78704;SHT31;68034;51.966;5.676;2023-06-14T07:41:49;22.8;40.1
78704;SHT31;68034;51.966;5.676;2023-06-14T07:44:18;22.8;39.9
78704;SHT31;68034;51.966;5.676;2023-06-14T07:46:47;22.9;38.9
78704;SHT31;68034;51.966;5.676;2023-06-14T07:49:16;23.0;39.8
78704;SHT31;68034;51.966;5.676;2023-06-14T07:51:45;23.1;40.3
78704;SHT31;68034;51.966;5.676;2023-06-14T07:54:14;23.2;39.8
78704;SHT31;68034;51.966;5.676;2023-06-14T07:56:43;23.3;38.3
78704;SHT31;68034;51.966;5.676;2023-06-14T07:59:12;23.4;38.8
78704;SHT31;68034;51.966;5.676;2023-06-14T08:01:41;23.5;38.0
78704;SHT31;68034;51.966;5.676;2023-06-14T08:04:13;23.6;38.5
78704;SHT31;68034;51.966;5.676;2023-06-14T08:06:42;23.6;37.3
78704;SHT31;68034;51.966;5.676;2023-06-14T08:09:12;23.7;38.3
78704;SHT31;68034;51.966;5.676;2023-06-14T08:11:41;23.8;37.5
78704;SHT31;68034;51.966;5.676;2023-06-14T08:14:10;23.9;36.4
78704;SHT31;68034;51.966;5.676;2023-06-14T08:16:39;24.0;36.0
78704;SHT31;68034;51.966;5.676;2023-06-14T08:19:08;24.1;36.4
78704;SHT31;68034;51.966;5.676;2023-06-14T08:21:37;24.1;36.3
78704;SHT31;68034;51.966;5.676;2023-06-14T08:24:06;24.2;35.6
78704;SHT31;68034;51.966;5.676;2023-06-14T08:26:38;24.3;34.6
78704;SHT31;68034;51.966;5.676;2023-06-14T08:29:07;24.4;35.2
78704;SHT31;68034;51.966;5.676;2023-06-14T08:31:36;24.4;35.6
78704;SHT31;68034;51.966;5.676;2023-06-14T08:34:04;24.5;35.7
78704;SHT31;68034;51.966;5.676;2023-06-14T08:36:36;24.6;34.6
78704;SHT31;68034;51.966;5.676;2023-06-14T08:39:05;24.6;34.0
78704;SHT31;68034;51.966;5.676;2023-06-14T08:41:35;24.7;33.9
78704;SHT31;68034;51.966;5.676;2023-06-14T08:44:04;24.8;35.0
78704;SHT31;68034;51.966;5.676;2023-06-14T08:46:35;24.9;33.9
78704;SHT31;68034;51.966;5.676;2023-06-14T08:49:05;24.9;34.4
78704;SHT31;68034;51.966;5.676;2023-06-14T08:51:36;25.0;34.4
78704;SHT31;68034;51.966;5.676;2023-06-14T08:54:07;25.2;34.1
78704;SHT31;68034;51.966;5.676;2023-06-14T08:56:38;25.4;32.7
78704;SHT31;68034;51.966;5.676;2023-06-14T08:59:08;25.6;32.9
78704;SHT31;68034;51.966;5.676;2023-06-14T09:01:37;25.7;32.2
78704;SHT31;68034;51.966;5.676;2023-06-14T09:04:06;25.8;32.5
78704;SHT31;68034;51.966;5.676;2023-06-14T09:06:35;25.8;31.4
78704;SHT31;68034;51.966;5.676;2023-06-14T09:09:04;25.9;30.4
78704;SHT31;68034;51.966;5.676;2023-06-14T09:11:35;26.0;30.7
78704;SHT31;68034;51.966;5.676;2023-06-14T09:14:03;26.0;29.9
78704;SHT31;68034;51.966;5.676;2023-06-14T09:16:34;26.1;31.1
78704;SHT31;68034;51.966;5.676;2023-06-14T09:19:02;26.1;30.9
78704;SHT31;68034;51.966;5.676;2023-06-14T09:21:33;26.2;31.0
78704;SHT31;68034;51.966;5.676;2023-06-14T09:24:04;26.2;30.5
78704;SHT31;68034;51.966;5.676;2023-06-14T09:26:33;26.2;30.6
78704;SHT31;68034;51.966;5.676;2023-06-14T09:29:04;26.3;29.7
78704;SHT31;68034;51.966;5.676;2023-06-14T09:31:35;26.3;30.4
78704;SHT31;68034;51.966;5.676;2023-06-14T09:34:04;26.4;29.8
78704;SHT31;68034;51.966;5.676;2023-06-14T09:36:35;26.4;29.6
78704;SHT31;68034;51.966;5.676;2023-06-14T09:39:03;26.5;29.6
78704;SHT31;68034;51.966;5.676;2023-06-14T09:41:36;26.5;31.1
78704;SHT31;68034;51.966;5.676;2023-06-14T09:44:07;26.6;30.0
78704;SHT31;68034;51.966;5.676;2023-06-14T09:46:37;26.6;29.5
78704;SHT31;68034;51.966;5.676;2023-06-14T09:49:06;26.6;29.4
78704;SHT31;68034;51.966;5.676;2023-06-14T09:51:45;26.7;29.2
78704;SHT31;68034;51.966;5.676;2023-06-14T09:54:16;26.7;29.5
78704;SHT31;68034;51.966;5.676;2023-06-14T09:56:47;26.8;29.5
78704;SHT31;68034;51.966;5.676;2023-06-14T09:59:19;26.8;29.3
78704;SHT31;68034;51.966;5.676;2023-06-14T10:01:58;26.9;30.4
78704;SHT31;68034;51.966;5.676;2023-06-14T10:04:30;26.9;30.9
78704;SHT31;68034;51.966;5.676;2023-06-14T10:07:00;27.0;30.0
78704;SHT31;68034;51.966;5.676;2023-06-14T10:09:30;27.1;29.8
78704;SHT31;68034;51.966;5.676;2023-06-14T10:12:00;27.2;28.3
78704;SHT31;68034;51.966;5.676;2023-06-14T10:14:32;27.2;29.3
78704;SHT31;68034;51.966;5.676;2023-06-14T10:17:06;27.3;28.8
78704;SHT31;68034;51.966;5.676;2023-06-14T10:19:46;27.4;29.0
78704;SHT31;68034;51.966;5.676;2023-06-14T10:22:22;27.4;28.9
78704;SHT31;68034;51.966;5.676;2023-06-14T10:24:52;27.5;29.4
78704;SHT31;68034;51.966;5.676;2023-06-14T10:27:21;27.5;28.9
78704;SHT31;68034;51.966;5.676;2023-06-14T10:30:09;27.6;29.2
78704;SHT31;68034;51.966;5.676;2023-06-14T10:33:05;27.6;29.2
78704;SHT31;68034;51.966;5.676;2023-06-14T10:35:36;27.7;29.4
78704;SHT31;68034;51.966;5.676;2023-06-14T10:38:09;27.8;28.9
78704;SHT31;68034;51.966;5.676;2023-06-14T10:40:42;27.8;28.5
78704;SHT31;68034;51.966;5.676;2023-06-14T10:43:25;27.9;28.9
78704;SHT31;68034;51.966;5.676;2023-06-14T10:46:16;27.9;28.6
78704;SHT31;68034;51.966;5.676;2023-06-14T10:48:49;28.0;28.5
78704;SHT31;68034;51.966;5.676;2023-06-14T10:51:23;28.0;29.2
78704;SHT31;68034;51.966;5.676;2023-06-14T10:54:02;28.1;30.0
78704;SHT31;68034;51.966;5.676;2023-06-14T10:56:36;28.4;30.5
78704;SHT31;68034;51.966;5.676;2023-06-14T10:59:06;28.5;28.6
78704;SHT31;68034;51.966;5.676;2023-06-14T11:01:40;28.6;28.5
78704;SHT31;68034;51.966;5.676;2023-06-14T11:04:10;28.7;28.2
78704;SHT31;68034;51.966;5.676;2023-06-14T11:07:07;28.7;27.8
78704;SHT31;68034;51.966;5.676;2023-06-14T11:09:52;28.8;27.6
78704;SHT31;68034;51.966;5.676;2023-06-14T11:12:28;28.8;26.5
78704;SHT31;68034;51.966;5.676;2023-06-14T11:15:00;28.9;27.7
78704;SHT31;68034;51.966;5.676;2023-06-14T11:17:29;28.9;27.9
78704;SHT31;68034;51.966;5.676;2023-06-14T11:20:09;28.9;28.0
78704;SHT31;68034;51.966;5.676;2023-06-14T11:22:42;28.9;26.5
78704;SHT31;68034;51.966;5.676;2023-06-14T11:25:12;28.9;26.9
78704;SHT31;68034;51.966;5.676;2023-06-14T11:27:41;28.9;25.9
78704;SHT31;68034;51.966;5.676;2023-06-14T11:30:12;28.9;26.3
78704;SHT31;68034;51.966;5.676;2023-06-14T11:32:41;28.9;26.0
78704;SHT31;68034;51.966;5.676;2023-06-14T11:35:10;28.9;25.9
78704;SHT31;68034;51.966;5.676;2023-06-14T11:37:39;28.9;26.2
78704;SHT31;68034;51.966;5.676;2023-06-14T11:40:09;28.9;27.1
78704;SHT31;68034;51.966;5.676;2023-06-14T11:42:40;28.9;25.9
78704;SHT31;68034;51.966;5.676;2023-06-14T11:45:11;29.0;26.1
78704;SHT31;68034;51.966;5.676;2023-06-14T11:47:40;29.1;26.9
78704;SHT31;68034;51.966;5.676;2023-06-14T11:50:14;29.2;26.4
78704;SHT31;68034;51.966;5.676;2023-06-14T11:53:02;29.5;26.2
78704;SHT31;68034;51.966;5.676;2023-06-14T11:55:42;29.8;26.2
78704;SHT31;68034;51.966;5.676;2023-06-14T11:58:24;30.1;26.0
78704;SHT31;68034;51.966;5.676;2023-06-14T12:00:58;30.4;24.9
78704;SHT31;68034;51.966;5.676;2023-06-14T12:03:31;30.6;24.2
78704;SHT31;68034;51.966;5.676;2023-06-14T12:06:09;30.8;24.4
78704;SHT31;68034;51.966;5.676;2023-06-14T12:08:43;30.9;25.1
78704;SHT31;68034;51.966;5.676;2023-06-14T12:11:18;31.0;24.6
78704;SHT31;68034;51.966;5.676;2023-06-14T12:13:49;31.1;24.4
78704;SHT31;68034;51.966;5.676;2023-06-14T12:16:18;31.1;24.5
78704;SHT31;68034;51.966;5.676;2023-06-14T12:18:48;31.1;24.2
78704;SHT31;68034;51.966;5.676;2023-06-14T12:21:24;31.2;24.7
78704;SHT31;68034;51.966;5.676;2023-06-14T12:23:57;31.2;24.4
78704;SHT31;68034;51.966;5.676;2023-06-14T12:26:25;31.2;24.3
78704;SHT31;68034;51.966;5.676;2023-06-14T12:28:56;31.2;24.8
78704;SHT31;68034;51.966;5.676;2023-06-14T12:31:25;31.2;24.5
78704;SHT31;68034;51.966;5.676;2023-06-14T12:33:54;31.2;24.7
78704;SHT31;68034;51.966;5.676;2023-06-14T12:36:22;31.1;24.8
78704;SHT31;68034;51.966;5.676;2023-06-14T12:38:51;31.2;24.1
78704;SHT31;68034;51.966;5.676;2023-06-14T12:41:22;31.2;24.0
78704;SHT31;68034;51.966;5.676;2023-06-14T12:43:53;31.2;24.3
78704;SHT31;68034;51.966;5.676;2023-06-14T12:46:24;31.3;23.6
78704;SHT31;68034;51.966;5.676;2023-06-14T12:48:55;31.3;23.8
78704;SHT31;68034;51.966;5.676;2023-06-14T12:51:26;31.4;24.3
78704;SHT31;68034;51.966;5.676;2023-06-14T12:53:55;31.5;23.7
78704;SHT31;68034;51.966;5.676;2023-06-14T12:56:25;31.5;23.4
78704;SHT31;68034;51.966;5.676;2023-06-14T12:58:55;31.6;23.9
78704;SHT31;68034;51.966;5.676;2023-06-14T13:01:23;31.7;23.4
78704;SHT31;68034;51.966;5.676;2023-06-14T13:03:58;31.8;23.6
78704;SHT31;68034;51.966;5.676;2023-06-14T13:06:28;31.8;24.0
78704;SHT31;68034;51.966;5.676;2023-06-14T13:08:57;31.9;23.4
78704;SHT31;68034;51.966;5.676;2023-06-14T13:11:27;31.9;23.4
78704;SHT31;68034;51.966;5.676;2023-06-14T13:13:56;32.0;23.8
78704;SHT31;68034;51.966;5.676;2023-06-14T13:16:24;32.0;24.0
78704;SHT31;68034;51.966;5.676;2023-06-14T13:18:53;32.0;22.9
78704;SHT31;68034;51.966;5.676;2023-06-14T13:21:21;32.0;23.3
78704;SHT31;68034;51.966;5.676;2023-06-14T13:23:50;32.1;23.4
78704;SHT31;68034;51.966;5.676;2023-06-14T13:26:19;32.1;24.4
78704;SHT31;68034;51.966;5.676;2023-06-14T13:28:47;32.1;23.9
78704;SHT31;68034;51.966;5.676;2023-06-14T13:31:17;32.1;24.6
78704;SHT31;68034;51.966;5.676;2023-06-14T13:33:46;32.1;23.6
78704;SHT31;68034;51.966;5.676;2023-06-14T13:36:15;32.2;23.4
78704;SHT31;68034;51.966;5.676;2023-06-14T13:38:44;32.2;24.1
78704;SHT31;68034;51.966;5.676;2023-06-14T13:41:14;32.2;24.1
78704;SHT31;68034;51.966;5.676;2023-06-14T13:43:43;32.3;24.0
78704;SHT31;68034;51.966;5.676;2023-06-14T13:46:11;32.3;24.0
78704;SHT31;68034;51.966;5.676;2023-06-14T13:48:42;32.4;24.0
78704;SHT31;68034;51.966;5.676;2023-06-14T13:51:13;32.5;23.3
78704;SHT31;68034;51.966;5.676;2023-06-14T13:53:41;32.5;23.3
78704;SHT31;68034;51.966;5.676;2023-06-14T13:56:10;32.5;23.7
78704;SHT31;68034;51.966;5.676;2023-06-14T13:58:41;32.6;22.6
78704;SHT31;68034;51.966;5.676;2023-06-14T14:01:09;32.7;22.9
78704;SHT31;68034;51.966;5.676;2023-06-14T14:03:38;32.7;22.4
78704;SHT31;68034;51.966;5.676;2023-06-14T14:06:07;32.8;22.5
78704;SHT31;68034;51.966;5.676;2023-06-14T14:08:36;32.8;22.9
78704;SHT31;68034;51.966;5.676;2023-06-14T14:11:05;32.8;23.0
78704;SHT31;68034;51.966;5.676;2023-06-14T14:13:35;32.8;22.1
78704;SHT31;68034;51.966;5.676;2023-06-14T14:16:05;32.7;22.2
78704;SHT31;68034;51.966;5.676;2023-06-14T14:18:34;32.6;22.7
78704;SHT31;68034;51.966;5.676;2023-06-14T14:21:03;32.5;22.5
78704;SHT31;68034;51.966;5.676;2023-06-14T14:23:32;32.3;22.8
78704;SHT31;68034;51.966;5.676;2023-06-14T14:26:01;32.1;24.1
78704;SHT31;68034;51.966;5.676;2023-06-14T14:28:30;31.9;23.8
78704;SHT31;68034;51.966;5.676;2023-06-14T14:30:59;31.8;23.1
78704;SHT31;68034;51.966;5.676;2023-06-14T14:33:28;31.6;22.6
78704;SHT31;68034;51.966;5.676;2023-06-14T14:35:57;31.5;22.7
78704;SHT31;68034;51.966;5.676;2023-06-14T14:38:30;31.3;23.8
78704;SHT31;68034;51.966;5.676;2023-06-14T14:40:58;31.2;24.1
78704;SHT31;68034;51.966;5.676;2023-06-14T14:43:29;31.0;24.0
78704;SHT31;68034;51.966;5.676;2023-06-14T14:45:58;31.0;24.4
78704;SHT31;68034;51.966;5.676;2023-06-14T14:48:27;30.9;24.4
78704;SHT31;68034;51.966;5.676;2023-06-14T14:50:56;30.8;24.5
78704;SHT31;68034;51.966;5.676;2023-06-14T14:53:24;30.7;24.2
78704;SHT31;68034;51.966;5.676;2023-06-14T14:55:53;30.6;25.3
78704;SHT31;68034;51.966;5.676;2023-06-14T14:58:22;30.5;25.0
78704;SHT31;68034;51.966;5.676;2023-06-14T15:00:51;30.4;25.8
78704;SHT31;68034;51.966;5.676;2023-06-14T15:03:20;30.4;26.1
78704;SHT31;68034;51.966;5.676;2023-06-14T15:05:48;30.4;25.2
78704;SHT31;68034;51.966;5.676;2023-06-14T15:08:17;30.3;25.0
78704;SHT31;68034;51.966;5.676;2023-06-14T15:10:46;30.3;25.0
78704;SHT31;68034;51.966;5.676;2023-06-14T15:13:15;30.3;24.5
78704;SHT31;68034;51.966;5.676;2023-06-14T15:15:45;30.3;24.6
78704;SHT31;68034;51.966;5.676;2023-06-14T15:18:13;30.3;25.3
78704;SHT31;68034;51.966;5.676;2023-06-14T15:20:43;30.2;24.7
78704;SHT31;68034;51.966;5.676;2023-06-14T15:23:11;30.1;25.0
78704;SHT31;68034;51.966;5.676;2023-06-14T15:25:45;30.1;24.5
78704;SHT31;68034;51.966;5.676;2023-06-14T15:28:15;30.0;26.2
78704;SHT31;68034;51.966;5.676;2023-06-14T15:30:43;29.9;25.7
78704;SHT31;68034;51.966;5.676;2023-06-14T15:33:12;29.9;25.6
78704;SHT31;68034;51.966;5.676;2023-06-14T15:35:41;29.8;25.7
78704;SHT31;68034;51.966;5.676;2023-06-14T15:38:10;29.7;25.6
78704;SHT31;68034;51.966;5.676;2023-06-14T15:40:38;29.7;26.2
78704;SHT31;68034;51.966;5.676;2023-06-14T15:43:07;29.6;25.9
78704;SHT31;68034;51.966;5.676;2023-06-14T15:45:35;29.5;26.4
78704;SHT31;68034;51.966;5.676;2023-06-14T15:48:06;29.5;26.2
78704;SHT31;68034;51.966;5.676;2023-06-14T15:50:34;29.4;25.8
78704;SHT31;68034;51.966;5.676;2023-06-14T15:53:03;29.4;25.9
78704;SHT31;68034;51.966;5.676;2023-06-14T15:55:31;29.4;26.4
78704;SHT31;68034;51.966;5.676;2023-06-14T15:58:00;29.3;26.2
78704;SHT31;68034;51.966;5.676;2023-06-14T16:00:29;29.3;26.7
78704;SHT31;68034;51.966;5.676;2023-06-14T16:02:58;29.2;26.8
78704;SHT31;68034;51.966;5.676;2023-06-14T16:05:26;29.1;26.8
78704;SHT31;68034;51.966;5.676;2023-06-14T16:07:55;29.1;26.1
78704;SHT31;68034;51.966;5.676;2023-06-14T16:10:26;29.0;26.6
78704;SHT31;68034;51.966;5.676;2023-06-14T16:12:54;29.0;26.7
78704;SHT31;68034;51.966;5.676;2023-06-14T16:15:23;29.0;26.9
78704;SHT31;68034;51.966;5.676;2023-06-14T16:17:51;28.9;27.5
78704;SHT31;68034;51.966;5.676;2023-06-14T16:20:21;28.9;26.8
78704;SHT31;68034;51.966;5.676;2023-06-14T16:22:49;28.8;27.2
78704;SHT31;68034;51.966;5.676;2023-06-14T16:25:18;28.8;27.3
78704;SHT31;68034;51.966;5.676;2023-06-14T16:27:48;28.8;27.3
78704;SHT31;68034;51.966;5.676;2023-06-14T16:30:17;28.7;27.3
78704;SHT31;68034;51.966;5.676;2023-06-14T16:32:46;28.7;27.4